createdAt,value
2023-01-20T00:00:37.000Z,97684
2023-01-20T00:02:01.000Z,97689
2023-01-20T00:04:05.000Z,97693
2023-01-20T00:06:54.000Z,97695
2023-01-20T00:08:18.000Z,97696
2023-01-20T00:10:22.000Z,97698
2023-01-20T00:11:46.000Z,97702
2023-01-20T00:13:50.000Z,97699
2023-01-20T00:15:14.000Z,97703
2023-01-20T00:17:18.000Z,97706
2023-01-20T00:18:43.000Z,97706
2023-01-20T00:20:46.000Z,97711
2023-01-20T00:22:10.000Z,97713
2023-01-20T00:24:14.000Z,97717
2023-01-20T00:25:38.000Z,97717
2023-01-20T00:27:42.000Z,97720
2023-01-20T00:29:06.000Z,97721
2023-01-20T00:31:10.000Z,97723
2023-01-20T00:32:34.000Z,97727
2023-01-20T00:34:38.000Z,97729
2023-01-20T00:36:02.000Z,97729
2023-01-20T00:38:06.000Z,97733
2023-01-20T00:39:30.000Z,97731
2023-01-20T00:41:34.000Z,97734
2023-01-20T00:44:23.000Z,97736
2023-01-20T00:45:47.000Z,97740
2023-01-20T00:47:51.000Z,97738
2023-01-20T00:49:15.000Z,97737
2023-01-20T00:51:19.000Z,97737
2023-01-20T00:52:43.000Z,97737
2023-01-20T00:54:47.000Z,97739
2023-01-20T00:56:11.000Z,97740
2023-01-20T00:58:15.000Z,97746
2023-01-20T00:59:39.000Z,97744
2023-01-20T01:01:42.000Z,97745
2023-01-20T01:03:07.000Z,97747
2023-01-20T01:05:11.000Z,97746
2023-01-20T01:06:35.000Z,97749
2023-01-20T01:08:39.000Z,97753
2023-01-20T01:10:03.000Z,97756
2023-01-20T01:12:07.000Z,97758
2023-01-20T01:13:31.000Z,97758
2023-01-20T01:15:35.000Z,97760
2023-01-20T01:16:59.000Z,97761
2023-01-20T01:19:03.000Z,97763
2023-01-20T01:21:52.000Z,97768
2023-01-20T01:23:16.000Z,97772
2023-01-20T01:25:20.000Z,97774
2023-01-20T01:26:44.000Z,97772
2023-01-20T01:28:48.000Z,97777
2023-01-20T01:30:12.000Z,97770
2023-01-20T01:32:16.000Z,97772
2023-01-20T01:33:40.000Z,97770
2023-01-20T01:35:44.000Z,97765
2023-01-20T01:37:08.000Z,97768
2023-01-20T01:39:12.000Z,97772
2023-01-20T01:40:36.000Z,97769
2023-01-20T01:42:40.000Z,97773
2023-01-20T01:44:07.000Z,97774
2023-01-20T01:46:10.000Z,97774
2023-01-20T01:47:35.000Z,97777
2023-01-20T01:49:38.000Z,97777
2023-01-20T01:51:03.000Z,97776
2023-01-20T01:53:06.000Z,97780
2023-01-20T01:54:31.000Z,97777
2023-01-20T01:56:34.000Z,97778
2023-01-20T02:00:56.000Z,97775
2023-01-20T02:03:02.000Z,97778
2023-01-20T02:03:36.000Z,97779
2023-01-20T02:05:01.000Z,97777
2023-01-20T02:07:05.000Z,97774
2023-01-20T02:08:29.000Z,97779
2023-01-20T02:10:33.000Z,97781
2023-01-20T02:11:57.000Z,97779
2023-01-20T02:14:01.000Z,97778
2023-01-20T02:15:25.000Z,97781
2023-01-20T02:17:28.000Z,97778
2023-01-20T02:18:53.000Z,97780
2023-01-20T02:20:56.000Z,97782
2023-01-20T02:22:21.000Z,97782
2023-01-20T02:24:24.000Z,97786
2023-01-20T02:25:49.000Z,97787
2023-01-20T02:27:52.000Z,97792
2023-01-20T02:29:17.000Z,97795
2023-01-20T02:31:20.000Z,97802
2023-01-20T02:32:45.000Z,97810
2023-01-20T02:34:48.000Z,97811
2023-01-20T02:36:13.000Z,97813
2023-01-20T02:38:16.000Z,97815
2023-01-20T02:40:54.000Z,97813
2023-01-20T02:42:18.000Z,97818
2023-01-20T02:44:21.000Z,97814
2023-01-20T02:45:46.000Z,97817
2023-01-20T02:47:49.000Z,97816
2023-01-20T02:49:16.000Z,97816
2023-01-20T02:52:52.000Z,97815
2023-01-20T02:53:26.000Z,97810
2023-01-20T02:54:50.000Z,97819
2023-01-20T02:56:54.000Z,97814
2023-01-20T02:58:18.000Z,97811
2023-01-20T03:00:22.000Z,97818
2023-01-20T03:01:46.000Z,97819
2023-01-20T03:03:50.000Z,97822
2023-01-20T03:05:14.000Z,97823
2023-01-20T03:07:18.000Z,97827
2023-01-20T03:08:43.000Z,97830
2023-01-20T03:10:46.000Z,97830
2023-01-20T03:12:11.000Z,97830
2023-01-20T03:14:14.000Z,97838
2023-01-20T03:15:39.000Z,97841
2023-01-20T03:17:42.000Z,97844
2023-01-20T03:20:25.000Z,97846
2023-01-20T03:21:50.000Z,97849
2023-01-20T03:23:53.000Z,97845
2023-01-20T03:25:18.000Z,97848
2023-01-20T03:27:21.000Z,97849
2023-01-20T03:28:45.000Z,97856
2023-01-20T03:30:49.000Z,97852
2023-01-20T03:32:13.000Z,97853
2023-01-20T03:34:17.000Z,97855
2023-01-20T03:35:41.000Z,97851
2023-01-20T03:37:45.000Z,97857
2023-01-20T03:39:10.000Z,97861
2023-01-20T03:41:13.000Z,97867
2023-01-20T03:42:38.000Z,97860
2023-01-20T03:44:41.000Z,97864
2023-01-20T03:46:05.000Z,97863
2023-01-20T03:48:09.000Z,97865
2023-01-20T03:49:33.000Z,97863
2023-01-20T03:51:37.000Z,97865
2023-01-20T03:53:01.000Z,97869
2023-01-20T03:55:05.000Z,97870
2023-01-20T03:59:27.000Z,97873
2023-01-20T04:01:24.000Z,97875
2023-01-20T04:02:49.000Z,97876
2023-01-20T04:04:52.000Z,97877
2023-01-20T04:06:17.000Z,97879
2023-01-20T04:08:20.000Z,97880
2023-01-20T04:09:45.000Z,97886
2023-01-20T04:11:48.000Z,97888
2023-01-20T04:13:13.000Z,97889
2023-01-20T04:15:16.000Z,97886
2023-01-20T04:16:41.000Z,97888
2023-01-20T04:18:45.000Z,97893
2023-01-20T04:20:09.000Z,97891
2023-01-20T04:22:13.000Z,97895
2023-01-20T04:23:37.000Z,97898
2023-01-20T04:25:40.000Z,97896
2023-01-20T04:27:05.000Z,97894
2023-01-20T04:29:08.000Z,97898
2023-01-20T04:30:37.000Z,97900
2023-01-20T04:32:40.000Z,97901
2023-01-20T04:34:05.000Z,97901
2023-01-20T04:36:08.000Z,97903
2023-01-20T04:38:57.000Z,97905
2023-01-20T04:40:22.000Z,97910
2023-01-20T04:42:25.000Z,97910
2023-01-20T04:43:50.000Z,97912
2023-01-20T04:45:53.000Z,97913
2023-01-20T04:47:18.000Z,97919
2023-01-20T04:49:21.000Z,97919
2023-01-20T04:50:46.000Z,97919
2023-01-20T04:52:49.000Z,97926
2023-01-20T04:54:14.000Z,97922
2023-01-20T04:56:17.000Z,97927
2023-01-20T04:57:41.000Z,97924
2023-01-20T04:59:45.000Z,97927
2023-01-20T05:01:09.000Z,97925
2023-01-20T05:03:13.000Z,97930
2023-01-20T05:04:37.000Z,97933
2023-01-20T05:06:41.000Z,97938
2023-01-20T05:08:05.000Z,97941
2023-01-20T05:10:09.000Z,97940
2023-01-20T05:11:33.000Z,97942
2023-01-20T05:13:37.000Z,97943
2023-01-20T05:17:59.000Z,97948
2023-01-20T05:19:57.000Z,97956
2023-01-20T05:21:21.000Z,97962
2023-01-20T05:23:24.000Z,97966
2023-01-20T05:24:49.000Z,97966
2023-01-20T05:26:52.000Z,97972
2023-01-20T05:28:17.000Z,97978
2023-01-20T05:30:20.000Z,97982
2023-01-20T05:31:45.000Z,97984
2023-01-20T05:33:48.000Z,97985
2023-01-20T05:35:13.000Z,97989
2023-01-20T05:37:17.000Z,97986
2023-01-20T05:38:41.000Z,97990
2023-01-20T05:40:45.000Z,97988
2023-01-20T05:42:09.000Z,97995
2023-01-20T05:44:13.000Z,97995
2023-01-20T05:45:37.000Z,98000
2023-01-20T05:47:40.000Z,97997
2023-01-20T05:49:05.000Z,97999
2023-01-20T05:51:08.000Z,98007
2023-01-20T05:52:33.000Z,98006
2023-01-20T05:54:36.000Z,98008
2023-01-20T05:57:25.000Z,98015
2023-01-20T05:58:50.000Z,98017
2023-01-20T06:00:53.000Z,98019
2023-01-20T06:02:18.000Z,98019
2023-01-20T06:04:21.000Z,98019
2023-01-20T06:05:46.000Z,98024
2023-01-20T06:07:49.000Z,98022
2023-01-20T06:09:13.000Z,98028
2023-01-20T06:11:17.000Z,98030
2023-01-20T06:12:41.000Z,98033
2023-01-20T06:14:45.000Z,98034
2023-01-20T06:16:09.000Z,98033
2023-01-20T06:18:13.000Z,98036
2023-01-20T06:19:37.000Z,98038
2023-01-20T06:21:40.000Z,98041
2023-01-20T06:23:05.000Z,98041
2023-01-20T06:25:08.000Z,98042
2023-01-20T06:26:33.000Z,98043
2023-01-20T06:28:36.000Z,98046
2023-01-20T06:30:01.000Z,98047
2023-01-20T06:32:04.000Z,98050
2023-01-20T06:34:54.000Z,98049
2023-01-20T06:36:19.000Z,98052
2023-01-20T06:38:22.000Z,98050
2023-01-20T06:39:46.000Z,98053
2023-01-20T06:41:50.000Z,98051
2023-01-20T06:43:14.000Z,98055
2023-01-20T06:45:18.000Z,98057
2023-01-20T06:46:42.000Z,98057
2023-01-20T06:48:46.000Z,98061
2023-01-20T06:50:10.000Z,98064
2023-01-20T06:52:13.000Z,98067
2023-01-20T06:53:38.000Z,98063
2023-01-20T06:55:41.000Z,98067
2023-01-20T06:57:06.000Z,98068
2023-01-20T06:59:09.000Z,98067
2023-01-20T07:00:33.000Z,98067
2023-01-20T07:02:37.000Z,98068
2023-01-20T07:04:02.000Z,98070
2023-01-20T07:06:05.000Z,98074
2023-01-20T07:07:29.000Z,98075
2023-01-20T07:09:33.000Z,98079
2023-01-20T07:12:22.000Z,98083
2023-01-20T07:13:47.000Z,98083
2023-01-20T07:15:50.000Z,98087
2023-01-20T07:17:15.000Z,98085
2023-01-20T07:19:18.000Z,98089
2023-01-20T07:20:42.000Z,98090
2023-01-20T07:22:46.000Z,98095
2023-01-20T07:24:10.000Z,98094
2023-01-20T07:26:14.000Z,98095
2023-01-20T07:27:38.000Z,98098
2023-01-20T07:29:42.000Z,98099
2023-01-20T07:31:06.000Z,98103
2023-01-20T07:33:09.000Z,98102
2023-01-20T07:34:34.000Z,98106
2023-01-20T07:36:37.000Z,98106
2023-01-20T07:38:02.000Z,98106
2023-01-20T07:40:05.000Z,98107
2023-01-20T07:41:30.000Z,98110
2023-01-20T07:43:33.000Z,98111
2023-01-20T07:44:57.000Z,98114
2023-01-20T07:47:01.000Z,98117
2023-01-20T07:49:50.000Z,98120
2023-01-20T07:51:15.000Z,98127
2023-01-20T07:53:18.000Z,98124
2023-01-20T07:54:43.000Z,98126
2023-01-20T07:56:46.000Z,98129
2023-01-20T07:58:11.000Z,98129
2023-01-20T08:00:14.000Z,98130
2023-01-20T08:01:39.000Z,98133
2023-01-20T08:03:42.000Z,98136
2023-01-20T08:05:07.000Z,98137
2023-01-20T08:07:10.000Z,98139
2023-01-20T08:08:34.000Z,98139
2023-01-20T08:10:38.000Z,98146
2023-01-20T08:12:02.000Z,98146
2023-01-20T08:14:06.000Z,98148
2023-01-20T08:15:30.000Z,98148
2023-01-20T08:17:34.000Z,98153
2023-01-20T08:18:58.000Z,98157
2023-01-20T08:21:02.000Z,98157
2023-01-20T08:22:26.000Z,98163
2023-01-20T08:24:30.000Z,98169
2023-01-20T08:28:51.000Z,98167
2023-01-20T08:30:58.000Z,98172
2023-01-20T08:32:52.000Z,98170
2023-01-20T08:34:16.000Z,98167
2023-01-20T08:36:20.000Z,98163
2023-01-20T08:37:44.000Z,98171
2023-01-20T08:39:47.000Z,98175
2023-01-20T08:41:12.000Z,98184
2023-01-20T08:43:15.000Z,98183
2023-01-20T08:44:40.000Z,98179
2023-01-20T08:46:43.000Z,98173
2023-01-20T08:48:08.000Z,98179
2023-01-20T08:50:11.000Z,98179
2023-01-20T08:51:36.000Z,98179
2023-01-20T08:53:39.000Z,98185
2023-01-20T08:55:04.000Z,98184
2023-01-20T08:57:07.000Z,98188
2023-01-20T08:58:32.000Z,98191
2023-01-20T09:00:35.000Z,98194
2023-01-20T09:01:59.000Z,98195
2023-01-20T09:04:03.000Z,98197
2023-01-20T09:05:31.000Z,98198
2023-01-20T09:07:34.000Z,98200
2023-01-20T09:10:23.000Z,98199
2023-01-20T09:11:48.000Z,98203
2023-01-20T09:13:51.000Z,98200
2023-01-20T09:15:16.000Z,98200
2023-01-20T09:17:20.000Z,98197
2023-01-20T09:18:44.000Z,98203
2023-01-20T09:20:47.000Z,98210
2023-01-20T09:22:12.000Z,98209
2023-01-20T09:24:15.000Z,98211
2023-01-20T09:25:40.000Z,98217
2023-01-20T09:27:43.000Z,98217
2023-01-20T09:29:08.000Z,98218
2023-01-20T09:31:11.000Z,98220
2023-01-20T09:32:36.000Z,98222
2023-01-20T09:34:39.000Z,98219
2023-01-20T09:36:04.000Z,98221
2023-01-20T09:38:07.000Z,98226
2023-01-20T09:39:32.000Z,98225
2023-01-20T09:41:35.000Z,98229
2023-01-20T09:43:00.000Z,98227
2023-01-20T09:45:03.000Z,98230
2023-01-20T09:47:53.000Z,98229
2023-01-20T09:49:17.000Z,98229
2023-01-20T09:51:21.000Z,98228
2023-01-20T09:52:45.000Z,98225
2023-01-20T09:54:48.000Z,98221
2023-01-20T09:56:13.000Z,98223
2023-01-20T09:58:16.000Z,98223
2023-01-20T09:59:41.000Z,98229
2023-01-20T10:01:44.000Z,98229
2023-01-20T10:03:09.000Z,98231
2023-01-20T10:05:12.000Z,98233
2023-01-20T10:06:37.000Z,98234
2023-01-20T10:08:40.000Z,98238
2023-01-20T10:10:05.000Z,98235
2023-01-20T10:12:08.000Z,98236
2023-01-20T10:13:32.000Z,98235
2023-01-20T10:15:36.000Z,98233
2023-01-20T10:17:00.000Z,98236
2023-01-20T10:19:04.000Z,98238
2023-01-20T10:20:28.000Z,98240
2023-01-20T10:22:32.000Z,98241
2023-01-20T10:25:21.000Z,98243
2023-01-20T10:26:46.000Z,98247
2023-01-20T10:28:49.000Z,98245
2023-01-20T10:30:13.000Z,98249
2023-01-20T10:32:17.000Z,98247
2023-01-20T10:33:42.000Z,98244
2023-01-20T10:35:45.000Z,98249
2023-01-20T10:37:10.000Z,98248
2023-01-20T10:39:13.000Z,98247
2023-01-20T10:40:38.000Z,98245
2023-01-20T10:42:41.000Z,98245
2023-01-20T10:44:06.000Z,98247
2023-01-20T10:46:09.000Z,98245
2023-01-20T10:47:36.000Z,98241
2023-01-20T10:49:40.000Z,98247
2023-01-20T10:51:04.000Z,98250
2023-01-20T10:53:08.000Z,98255
2023-01-20T10:54:32.000Z,98261
2023-01-20T10:56:36.000Z,98266
2023-01-20T10:58:00.000Z,98266
2023-01-20T11:00:04.000Z,98270
2023-01-20T11:02:53.000Z,98274
2023-01-20T11:04:17.000Z,98282
2023-01-20T11:06:21.000Z,98281
2023-01-20T11:07:45.000Z,98280
2023-01-20T11:09:49.000Z,98282
2023-01-20T11:11:13.000Z,98283
2023-01-20T11:13:17.000Z,98288
2023-01-20T11:14:41.000Z,98285
2023-01-20T11:16:45.000Z,98287
2023-01-20T11:18:09.000Z,98289
2023-01-20T11:20:12.000Z,98286
2023-01-20T11:21:38.000Z,98288
2023-01-20T11:23:41.000Z,98291
2023-01-20T11:25:06.000Z,98290
2023-01-20T11:27:09.000Z,98288
2023-01-20T11:28:34.000Z,98292
2023-01-20T11:30:37.000Z,98294
2023-01-20T11:32:02.000Z,98292
2023-01-20T11:34:05.000Z,98296
2023-01-20T11:35:29.000Z,98292
2023-01-20T11:37:33.000Z,98293
2023-01-20T11:40:22.000Z,98291
2023-01-20T11:41:47.000Z,98290
2023-01-20T11:43:50.000Z,98295
2023-01-20T11:45:14.000Z,98293
2023-01-20T11:47:25.000Z,98292
2023-01-20T11:48:49.000Z,98290
2023-01-20T11:50:52.000Z,98286
2023-01-20T11:52:17.000Z,98285
2023-01-20T11:54:20.000Z,98285
2023-01-20T11:55:45.000Z,98281
2023-01-20T11:57:48.000Z,98285
2023-01-20T11:59:13.000Z,98287
2023-01-20T12:01:16.000Z,98289
2023-01-20T12:02:41.000Z,98291
2023-01-20T12:04:44.000Z,98288
2023-01-20T12:06:09.000Z,98288
2023-01-20T12:08:12.000Z,98288
2023-01-20T12:09:36.000Z,98287
2023-01-20T12:11:40.000Z,98286
2023-01-20T12:13:04.000Z,98289
2023-01-20T12:15:08.000Z,98290
2023-01-20T12:17:57.000Z,98289
2023-01-20T12:19:22.000Z,98290
2023-01-20T12:21:25.000Z,98290
2023-01-20T12:22:49.000Z,98296
2023-01-20T12:24:53.000Z,98295
2023-01-20T12:26:17.000Z,98295
2023-01-20T12:28:21.000Z,98295
2023-01-20T12:29:45.000Z,98300
2023-01-20T12:31:49.000Z,98303
2023-01-20T12:33:13.000Z,98303
2023-01-20T12:35:17.000Z,98307
2023-01-20T12:36:41.000Z,98306
2023-01-20T12:38:45.000Z,98305
2023-01-20T12:40:09.000Z,98305
2023-01-20T12:42:13.000Z,98303
2023-01-20T12:43:37.000Z,98302
2023-01-20T12:45:40.000Z,98299
2023-01-20T12:47:05.000Z,98301
2023-01-20T12:49:08.000Z,98303
2023-01-20T12:50:33.000Z,98302
2023-01-20T12:52:36.000Z,98304
2023-01-20T12:55:25.000Z,98304
2023-01-20T12:56:50.000Z,98308
2023-01-20T12:58:53.000Z,98306
2023-01-20T13:00:18.000Z,98306
2023-01-20T13:02:22.000Z,98308
2023-01-20T13:03:47.000Z,98306
2023-01-20T13:05:50.000Z,98306
2023-01-20T13:07:14.000Z,98306
2023-01-20T13:09:18.000Z,98311
2023-01-20T13:10:42.000Z,98310
2023-01-20T13:12:50.000Z,98314
2023-01-20T13:14:14.000Z,98316
2023-01-20T13:16:17.000Z,98314
2023-01-20T13:17:42.000Z,98317
2023-01-20T13:19:45.000Z,98315
2023-01-20T13:21:10.000Z,98314
2023-01-20T13:23:13.000Z,98314
2023-01-20T13:24:38.000Z,98315
2023-01-20T13:26:41.000Z,98313
2023-01-20T13:28:06.000Z,98313
2023-01-20T13:30:09.000Z,98314
2023-01-20T13:32:59.000Z,98317
2023-01-20T13:34:23.000Z,98315
2023-01-20T13:36:26.000Z,98317
2023-01-20T13:37:51.000Z,98319
2023-01-20T13:39:54.000Z,98319
2023-01-20T13:41:19.000Z,98323
2023-01-20T13:43:22.000Z,98320
2023-01-20T13:44:47.000Z,98323
2023-01-20T13:46:50.000Z,98321
2023-01-20T13:48:15.000Z,98329
2023-01-20T13:50:18.000Z,98330
2023-01-20T13:51:43.000Z,98329
2023-01-20T13:53:46.000Z,98332
2023-01-20T13:55:11.000Z,98336
2023-01-20T13:57:14.000Z,98341
2023-01-20T13:58:38.000Z,98341
2023-01-20T14:00:42.000Z,98342
2023-01-20T14:02:06.000Z,98347
2023-01-20T14:04:10.000Z,98348
2023-01-20T14:05:35.000Z,98347
2023-01-20T14:07:38.000Z,98351
2023-01-20T14:12:00.000Z,98351
2023-01-20T14:12:34.000Z,98353
2023-01-20T14:13:58.000Z,98358
2023-01-20T14:16:01.000Z,98358
2023-01-20T14:17:26.000Z,98361
2023-01-20T14:19:29.000Z,98361
2023-01-20T14:20:54.000Z,98357
2023-01-20T14:22:57.000Z,98358
2023-01-20T14:24:22.000Z,98362
2023-01-20T14:26:25.000Z,98358
2023-01-20T14:27:49.000Z,98356
2023-01-20T14:29:53.000Z,98359
2023-01-20T14:31:17.000Z,98361
2023-01-20T14:33:21.000Z,98358
2023-01-20T14:34:46.000Z,98361
2023-01-20T14:36:49.000Z,98363
2023-01-20T14:38:14.000Z,98367
2023-01-20T14:40:17.000Z,98361
2023-01-20T14:41:42.000Z,98365
2023-01-20T14:43:46.000Z,98369
2023-01-20T14:45:10.000Z,98371
2023-01-20T14:48:48.000Z,98375
2023-01-20T14:49:22.000Z,98376
2023-01-20T14:52:00.000Z,98382
2023-01-20T14:53:24.000Z,98378
2023-01-20T14:55:28.000Z,98378
2023-01-20T14:56:52.000Z,98379
2023-01-20T14:58:55.000Z,98375
2023-01-20T15:00:20.000Z,98377
2023-01-20T15:02:23.000Z,98379
2023-01-20T15:03:52.000Z,98381
2023-01-20T15:05:55.000Z,98382
2023-01-20T15:07:20.000Z,98387
2023-01-20T15:09:23.000Z,98389
2023-01-20T15:10:48.000Z,98393
2023-01-20T15:12:51.000Z,98391
2023-01-20T15:14:16.000Z,98397
2023-01-20T15:16:19.000Z,98397
2023-01-20T15:17:44.000Z,98398
2023-01-20T15:19:47.000Z,98398
2023-01-20T15:21:12.000Z,98400
2023-01-20T15:23:20.000Z,98405
2023-01-20T15:24:45.000Z,98403
2023-01-20T15:26:48.000Z,98409
2023-01-20T15:29:38.000Z,98410
2023-01-20T15:31:02.000Z,98411
2023-01-20T15:33:06.000Z,98417
2023-01-20T15:34:30.000Z,98414
2023-01-20T15:36:34.000Z,98423
2023-01-20T15:37:58.000Z,98421
2023-01-20T15:40:02.000Z,98422
2023-01-20T15:41:26.000Z,98422
2023-01-20T15:43:30.000Z,98427
2023-01-20T15:44:54.000Z,98432
2023-01-20T15:46:58.000Z,98431
2023-01-20T15:48:22.000Z,98436
2023-01-20T15:50:26.000Z,98436
2023-01-20T15:51:50.000Z,98435
2023-01-20T15:53:54.000Z,98440
2023-01-20T15:55:18.000Z,98445
2023-01-20T15:57:22.000Z,98451
2023-01-20T15:58:46.000Z,98451
2023-01-20T16:00:49.000Z,98454
2023-01-20T16:02:14.000Z,98455
2023-01-20T16:04:17.000Z,98455
2023-01-20T16:08:39.000Z,98465
2023-01-20T16:10:46.000Z,98468
2023-01-20T16:12:43.000Z,98468
2023-01-20T16:14:08.000Z,98469
2023-01-20T16:16:11.000Z,98471
2023-01-20T16:17:36.000Z,98474
2023-01-20T16:19:39.000Z,98478
2023-01-20T16:21:04.000Z,98480
2023-01-20T16:23:07.000Z,98485
2023-01-20T16:24:32.000Z,98486
2023-01-20T16:26:36.000Z,98485
2023-01-20T16:28:00.000Z,98489
2023-01-20T16:30:03.000Z,98491
2023-01-20T16:31:28.000Z,98493
2023-01-20T16:33:32.000Z,98492
2023-01-20T16:34:56.000Z,98495
2023-01-20T16:37:00.000Z,98497
2023-01-20T16:38:25.000Z,98496
2023-01-20T16:40:28.000Z,98504
2023-01-20T16:41:53.000Z,98504
2023-01-20T16:43:56.000Z,98509
2023-01-20T16:45:21.000Z,98509
2023-01-20T16:47:24.000Z,98511
2023-01-20T16:50:13.000Z,98515
2023-01-20T16:51:38.000Z,98517
2023-01-20T16:53:42.000Z,98520
2023-01-20T16:55:06.000Z,98522
2023-01-20T16:57:10.000Z,98523
2023-01-20T16:58:34.000Z,98523
2023-01-20T17:00:38.000Z,98520
2023-01-20T17:02:02.000Z,98526
2023-01-20T17:04:06.000Z,98526
2023-01-20T17:05:30.000Z,98530
2023-01-20T17:07:34.000Z,98530
2023-01-20T17:08:58.000Z,98533
2023-01-20T17:11:02.000Z,98535
2023-01-20T17:12:26.000Z,98538
2023-01-20T17:14:30.000Z,98539
2023-01-20T17:15:54.000Z,98541
2023-01-20T17:17:58.000Z,98540
2023-01-20T17:19:22.000Z,98541
2023-01-20T17:21:26.000Z,98539
2023-01-20T17:22:50.000Z,98544
2023-01-20T17:24:54.000Z,98552
2023-01-20T17:27:43.000Z,98552
2023-01-20T17:29:07.000Z,98553
2023-01-20T17:31:11.000Z,98552
2023-01-20T17:32:35.000Z,98551
2023-01-20T17:34:39.000Z,98554
2023-01-20T17:36:03.000Z,98554
2023-01-20T17:38:07.000Z,98555
2023-01-20T17:39:31.000Z,98557
2023-01-20T17:41:34.000Z,98559
2023-01-20T17:42:59.000Z,98557
2023-01-20T17:45:02.000Z,98551
2023-01-20T17:46:27.000Z,98551
2023-01-20T17:48:30.000Z,98556
2023-01-20T17:49:55.000Z,98554
2023-01-20T17:51:58.000Z,98566
2023-01-20T17:53:23.000Z,98568
2023-01-20T17:55:26.000Z,98567
2023-01-20T17:56:51.000Z,98565
2023-01-20T17:58:54.000Z,98569
2023-01-20T18:00:19.000Z,98572
2023-01-20T18:02:22.000Z,98577
2023-01-20T18:05:12.000Z,98582
2023-01-20T18:06:36.000Z,98585
2023-01-20T18:08:40.000Z,98589
2023-01-20T18:10:04.000Z,98587
2023-01-20T18:12:07.000Z,98590
2023-01-20T18:13:32.000Z,98591
2023-01-20T18:15:35.000Z,98591
2023-01-20T18:17:00.000Z,98593
2023-01-20T18:19:03.000Z,98593
2023-01-20T18:20:28.000Z,98596
2023-01-20T18:22:31.000Z,98602
2023-01-20T18:23:56.000Z,98599
2023-01-20T18:25:59.000Z,98600
2023-01-20T18:27:24.000Z,98601
2023-01-20T18:29:27.000Z,98602
2023-01-20T18:30:52.000Z,98603
2023-01-20T18:32:55.000Z,98605
2023-01-20T18:34:20.000Z,98608
2023-01-20T18:36:24.000Z,98608
2023-01-20T18:37:48.000Z,98606
2023-01-20T18:39:51.000Z,98609
2023-01-20T18:42:41.000Z,98610
2023-01-20T18:44:05.000Z,98609
2023-01-20T18:46:09.000Z,98614
2023-01-20T18:47:34.000Z,98615
2023-01-20T18:49:37.000Z,98617
2023-01-20T18:51:01.000Z,98619
2023-01-20T18:53:05.000Z,98622
2023-01-20T18:54:29.000Z,98624
2023-01-20T18:56:33.000Z,98631
2023-01-20T18:57:57.000Z,98632
2023-01-20T19:00:01.000Z,98634
2023-01-20T19:01:25.000Z,98637
2023-01-20T19:03:29.000Z,98638
2023-01-20T19:04:53.000Z,98637
2023-01-20T19:06:57.000Z,98640
2023-01-20T19:08:21.000Z,98643
2023-01-20T19:10:25.000Z,98644
2023-01-20T19:11:49.000Z,98644
2023-01-20T19:13:53.000Z,98645
2023-01-20T19:15:17.000Z,98646
2023-01-20T19:17:21.000Z,98650
2023-01-20T19:20:10.000Z,98647
2023-01-20T19:21:34.000Z,98650
2023-01-20T19:23:38.000Z,98650
2023-01-20T19:25:02.000Z,98649
2023-01-20T19:27:06.000Z,98654
2023-01-20T19:28:30.000Z,98658
2023-01-20T19:30:34.000Z,98660
2023-01-20T19:31:58.000Z,98660
2023-01-20T19:34:02.000Z,98660
2023-01-20T19:35:26.000Z,98658
2023-01-20T19:37:29.000Z,98660
2023-01-20T19:38:54.000Z,98659
2023-01-20T19:40:57.000Z,98664
2023-01-20T19:42:22.000Z,98664
2023-01-20T19:44:28.000Z,98669
2023-01-20T19:45:53.000Z,98673
2023-01-20T19:47:56.000Z,98675
2023-01-20T19:49:21.000Z,98671
2023-01-20T19:51:24.000Z,98673
2023-01-20T19:52:49.000Z,98676
2023-01-20T19:54:53.000Z,98683
2023-01-20T19:57:42.000Z,98683
2023-01-20T19:59:06.000Z,98687
2023-01-20T20:01:10.000Z,98690
2023-01-20T20:02:34.000Z,98689
2023-01-20T20:04:38.000Z,98694
2023-01-20T20:06:02.000Z,98692
2023-01-20T20:08:06.000Z,98694
2023-01-20T20:09:30.000Z,98696
2023-01-20T20:11:34.000Z,98696
2023-01-20T20:12:58.000Z,98700
2023-01-20T20:15:01.000Z,98703
2023-01-20T20:16:26.000Z,98698
2023-01-20T20:18:29.000Z,98701
2023-01-20T20:19:54.000Z,98698
2023-01-20T20:21:57.000Z,98700
2023-01-20T20:23:22.000Z,98705
2023-01-20T20:25:25.000Z,98712
2023-01-20T20:26:50.000Z,98716
2023-01-20T20:28:53.000Z,98713
2023-01-20T20:30:17.000Z,98715
2023-01-20T20:32:21.000Z,98717
2023-01-20T20:35:11.000Z,98725
2023-01-20T20:36:35.000Z,98723
2023-01-20T20:38:39.000Z,98723
2023-01-20T20:40:03.000Z,98724
2023-01-20T20:42:06.000Z,98724
2023-01-20T20:43:31.000Z,98723
2023-01-20T20:45:34.000Z,98724
2023-01-20T20:46:59.000Z,98724
2023-01-20T20:49:02.000Z,98725
2023-01-20T20:50:27.000Z,98728
2023-01-20T20:52:30.000Z,98730
2023-01-20T20:53:55.000Z,98735
2023-01-20T20:55:58.000Z,98738
2023-01-20T20:57:23.000Z,98738
2023-01-20T20:59:26.000Z,98737
2023-01-20T21:00:50.000Z,98737
2023-01-20T21:02:54.000Z,98741
2023-01-20T21:04:18.000Z,98747
2023-01-20T21:06:22.000Z,98749
2023-01-20T21:07:46.000Z,98747
2023-01-20T21:09:50.000Z,98753
2023-01-20T21:12:39.000Z,98758
2023-01-20T21:14:04.000Z,98758
2023-01-20T21:16:07.000Z,98759
2023-01-20T21:17:32.000Z,98760
2023-01-20T21:19:35.000Z,98761
2023-01-20T21:21:00.000Z,98765
2023-01-20T21:23:03.000Z,98770
2023-01-20T21:24:27.000Z,98772
2023-01-20T21:26:31.000Z,98776
2023-01-20T21:27:55.000Z,98781
2023-01-20T21:29:59.000Z,98780
2023-01-20T21:31:23.000Z,98782
2023-01-20T21:33:27.000Z,98787
2023-01-20T21:34:51.000Z,98787
2023-01-20T21:36:55.000Z,98786
2023-01-20T21:38:19.000Z,98782
2023-01-20T21:40:23.000Z,98788
2023-01-20T21:41:47.000Z,98787
2023-01-20T21:43:51.000Z,98794
2023-01-20T21:45:15.000Z,98796
2023-01-20T21:47:19.000Z,98797
2023-01-20T21:50:08.000Z,98799
2023-01-20T21:51:32.000Z,98805
2023-01-20T21:53:36.000Z,98803
2023-01-20T21:55:00.000Z,98808
2023-01-20T21:57:03.000Z,98809
2023-01-20T21:58:28.000Z,98811
2023-01-20T22:00:31.000Z,98814
2023-01-20T22:01:56.000Z,98817
2023-01-20T22:03:59.000Z,98818
2023-01-20T22:05:24.000Z,98817
2023-01-20T22:07:27.000Z,98822
2023-01-20T22:08:52.000Z,98823
2023-01-20T22:10:55.000Z,98826
2023-01-20T22:12:19.000Z,98828
2023-01-20T22:14:23.000Z,98829
2023-01-20T22:15:47.000Z,98831
2023-01-20T22:17:51.000Z,98834
2023-01-20T22:19:15.000Z,98842
2023-01-20T22:21:19.000Z,98846
2023-01-20T22:22:43.000Z,98847
2023-01-20T22:24:47.000Z,98850
2023-01-20T22:27:36.000Z,98851
2023-01-20T22:29:00.000Z,98854
2023-01-20T22:31:04.000Z,98855
2023-01-20T22:32:28.000Z,98855
2023-01-20T22:34:32.000Z,98857
2023-01-20T22:35:56.000Z,98858
2023-01-20T22:38:00.000Z,98861
2023-01-20T22:39:24.000Z,98864
2023-01-20T22:41:28.000Z,98862
2023-01-20T22:42:52.000Z,98861
2023-01-20T22:44:56.000Z,98858
2023-01-20T22:46:20.000Z,98864
2023-01-20T22:48:24.000Z,98864
2023-01-20T22:49:48.000Z,98872
2023-01-20T22:51:52.000Z,98873
2023-01-20T22:53:16.000Z,98876
2023-01-20T22:55:19.000Z,98876
2023-01-20T22:56:44.000Z,98874
2023-01-20T22:58:47.000Z,98875
2023-01-20T23:00:12.000Z,98876
2023-01-20T23:02:15.000Z,98881
2023-01-20T23:05:04.000Z,98885
2023-01-20T23:06:29.000Z,98885
2023-01-20T23:08:32.000Z,98880